Time;durP1;ratioP1;P1;durP2;ratioP2;P2;SDS_P1;SDS_P2;PMS_P1;PMS_P2;Temp;Humidity;BMP_temperature;BMP_pressure;BME280_temperature;BME280_humidity;BME280_pressure;Samples;Min_cycle;Max_cycle;Signal;HPM_P1;HPM_P2
2023/10/16 00:01:28;;;;;;;0.10;0.10;;;7.20;99.90;;;;;;5107530;27;20054;-65
2023/10/16 00:03:56;;;;;;;0.30;0.30;;;7.20;99.90;;;;;;5079420;28;20119;-65
2023/10/16 00:06:22;;;;;;;0.85;0.30;;;7.20;99.90;;;;;;5081425;28;20059;-66
2023/10/16 00:08:47;;;;;;;0.10;0.10;;;7.20;99.90;;;;;;5083559;28;20104;-66
2023/10/16 00:11:18;;;;;;;0.00;0.00;;;7.20;99.90;;;;;;5077792;28;20040;-66
2023/10/16 00:13:47;;;;;;;0.13;0.13;;;7.20;99.90;;;;;;5078398;28;20079;-66
2023/10/16 00:16:15;;;;;;;0.00;0.00;;;7.20;99.90;;;;;;5076602;28;20032;-66
2023/10/16 00:18:41;;;;;;;0.00;0.00;;;7.20;99.90;;;;;;5084144;27;20047;-65
2023/10/16 00:21:07;;;;;;;0.30;0.30;;;7.20;99.90;;;;;;5080842;28;20124;-65
2023/10/16 00:23:40;;;;;;;0.10;0.10;;;7.20;99.90;;;;;;5117428;27;20063;-65
2023/10/16 00:26:06;;;;;;;0.08;0.08;;;7.20;99.90;;;;;;5081143;28;20039;-65
2023/10/16 00:28:36;;;;;;;0.10;0.10;;;7.20;99.90;;;;;;5080336;28;20426;-66
2023/10/16 00:31:03;;;;;;;0.10;0.10;;;7.20;99.90;;;;;;5081689;28;20057;-65
2023/10/16 00:33:29;;;;;;;0.10;0.10;;;7.30;99.90;;;;;;5076440;28;20046;-65
2023/10/16 00:35:54;;;;;;;0.10;0.10;;;7.30;99.90;;;;;;5081894;28;20047;-65
2023/10/16 00:38:22;;;;;;;0.10;0.10;;;7.40;99.90;;;;;;5080070;28;20031;-65
2023/10/16 00:43:33;;;;;;;0.17;0.17;;;7.50;99.90;;;;;;5078146;28;20047;-65
2023/10/16 00:46:08;;;;;;;0.20;0.20;;;7.50;99.90;;;;;;5112606;27;20039;-65
2023/10/16 00:48:36;;;;;;;0.73;0.73;;;7.50;99.90;;;;;;5077302;28;20067;-65
2023/10/16 00:51:13;;;;;;;0.10;0.10;;;7.50;99.90;;;;;;5083696;28;20051;-65
2023/10/16 00:53:40;;;;;;;0.10;0.10;;;7.60;99.90;;;;;;5083043;28;20459;-65
2023/10/16 00:56:08;;;;;;;0.13;0.13;;;7.50;99.90;;;;;;5081716;28;20380;-65
2023/10/16 00:58:37;;;;;;;0.10;0.10;;;7.60;99.90;;;;;;5082950;28;20077;-65
2023/10/16 01:01:12;;;;;;;0.10;0.10;;;7.50;99.90;;;;;;5082937;28;20507;-65
2023/10/16 01:03:40;;;;;;;0.10;0.10;;;7.50;99.90;;;;;;5081656;28;20036;-65
2023/10/16 01:06:15;;;;;;;0.13;0.10;;;7.60;99.90;;;;;;5114693;27;20035;-65
2023/10/16 01:08:51;;;;;;;0.10;0.10;;;7.60;99.90;;;;;;5114766;27;20062;-66
2023/10/16 01:11:20;;;;;;;0.20;0.20;;;7.50;99.90;;;;;;5084013;28;20537;-64
2023/10/16 01:13:47;;;;;;;0.75;0.75;;;7.50;99.90;;;;;;5078762;28;20080;-65
2023/10/16 01:16:17;;;;;;;0.00;0.00;;;7.50;99.90;;;;;;5080668;27;20040;-65
2023/10/16 01:18:44;;;;;;;0.20;0.20;;;7.40;99.90;;;;;;5115374;27;20497;-65
2023/10/16 01:21:09;;;;;;;0.63;0.63;;;7.40;99.90;;;;;;5083725;28;20061;-65
2023/10/16 01:23:35;;;;;;;0.00;0.00;;;7.30;99.90;;;;;;5080272;28;20381;-65
2023/10/16 01:26:02;;;;;;;0.10;0.10;;;7.20;99.90;;;;;;5079210;28;20096;-65
2023/10/16 01:28:28;;;;;;;0.65;0.47;;;7.20;99.90;;;;;;5084919;28;20043;-65
2023/10/16 01:30:54;;;;;;;0.15;0.15;;;7.20;99.90;;;;;;5081959;28;20414;-65
2023/10/16 01:33:20;;;;;;;0.10;0.10;;;7.20;99.90;;;;;;5084215;28;20092;-65
2023/10/16 01:35:46;;;;;;;0.20;0.20;;;7.20;99.90;;;;;;5077980;28;20126;-65
2023/10/16 01:38:15;;;;;;;0.10;0.10;;;7.20;99.90;;;;;;5079735;28;20043;-66
2023/10/16 01:41:04;;;;;;;0.22;0.22;;;7.20;99.90;;;;;;5081864;28;20042;-66
2023/10/16 01:43:34;;;;;;;0.90;0.50;;;7.30;99.90;;;;;;5101000;28;20055;-65
2023/10/16 01:46:03;;;;;;;0.45;0.40;;;7.30;99.90;;;;;;5084496;28;20050;-65
2023/10/16 01:48:28;;;;;;;0.52;0.52;;;7.30;99.90;;;;;;5080307;28;20042;-65
2023/10/16 01:50:55;;;;;;;0.10;0.10;;;7.30;99.90;;;;;;5114307;27;20187;-65
2023/10/16 01:53:22;;;;;;;0.43;0.43;;;7.30;99.90;;;;;;5080800;28;20036;-64
2023/10/16 01:55:54;;;;;;;0.90;0.55;;;7.30;99.90;;;;;;5076222;28;20044;-64
2023/10/16 01:58:22;;;;;;;0.98;0.55;;;7.30;99.90;;;;;;5084429;28;20399;-65
2023/10/16 02:00:49;;;;;;;0.75;0.28;;;7.30;99.90;;;;;;5078579;28;20149;-65
2023/10/16 02:03:17;;;;;;;0.45;0.45;;;7.30;99.90;;;;;;5080783;28;20047;-65
2023/10/16 02:05:45;;;;;;;1.60;0.82;;;7.30;99.90;;;;;;5079993;28;20401;-65
2023/10/16 02:08:14;;;;;;;0.20;0.20;;;7.30;99.90;;;;;;5117108;27;20039;-65
2023/10/16 02:10:44;;;;;;;0.30;0.30;;;7.30;99.90;;;;;;5080813;28;20035;-64
2023/10/16 02:13:10;;;;;;;0.30;0.30;;;7.20;99.90;;;;;;5111402;28;20044;-65
2023/10/16 02:15:39;;;;;;;0.40;0.40;;;7.20;99.90;;;;;;5083481;28;20031;-64
2023/10/16 02:18:18;;;;;;;0.60;0.60;;;7.10;99.90;;;;;;5097195;28;20035;-64
2023/10/16 02:20:45;;;;;;;0.25;0.25;;;7.10;99.90;;;;;;5099761;28;20474;-64
2023/10/16 02:23:11;;;;;;;0.60;0.30;;;7.10;99.90;;;;;;5078039;28;20077;-65
2023/10/16 02:25:37;;;;;;;2.00;0.90;;;7.20;99.90;;;;;;5081149;28;20352;-65
2023/10/16 02:28:07;;;;;;;0.75;0.73;;;7.20;99.90;;;;;;5118889;28;20060;-64
2023/10/16 02:30:36;;;;;;;0.28;0.20;;;7.10;99.90;;;;;;5096684;28;21137;-64
2023/10/16 02:35:57;;;;;;;0.10;0.10;;;7.10;99.90;;;;;;5077336;28;20394;-64
2023/10/16 02:38:28;;;;;;;0.40;0.40;;;7.10;99.90;;;;;;5113397;27;20043;-64
2023/10/16 02:41:00;;;;;;;4.22;0.57;;;7.00;99.90;;;;;;5112079;27;20131;-64
2023/10/16 02:43:27;;;;;;;0.40;0.40;;;7.10;99.90;;;;;;5073182;28;20079;-64
2023/10/16 02:45:53;;;;;;;0.25;0.22;;;7.10;99.90;;;;;;5112997;28;20046;-64
2023/10/16 02:48:20;;;;;;;0.55;0.50;;;7.10;99.90;;;;;;5078874;28;20390;-64
2023/10/16 02:50:50;;;;;;;0.20;0.17;;;7.10;99.90;;;;;;5079549;28;20039;-65
2023/10/16 02:53:23;;;;;;;0.43;0.43;;;7.20;99.90;;;;;;5112819;27;20115;-66
2023/10/16 02:55:54;;;;;;;0.20;0.20;;;7.20;99.90;;;;;;5081099;28;20040;-64
2023/10/16 02:58:22;;;;;;;0.22;0.20;;;7.20;99.90;;;;;;5116073;27;20050;-65
2023/10/16 03:00:53;;;;;;;0.20;0.20;;;7.20;99.90;;;;;;5117517;27;20035;-64
2023/10/16 03:03:20;;;;;;;0.50;0.50;;;7.20;99.90;;;;;;5117451;27;20505;-65
2023/10/16 03:05:45;;;;;;;0.32;0.32;;;7.20;99.90;;;;;;5082439;27;20436;-65
2023/10/16 03:08:13;;;;;;;0.10;0.10;;;7.20;99.90;;;;;;5080508;28;20050;-65
2023/10/16 03:10:40;;;;;;;0.25;0.25;;;7.20;99.90;;;;;;5082229;28;20104;-64
2023/10/16 03:13:06;;;;;;;1.02;0.20;;;7.30;99.90;;;;;;5116061;27;20047;-65
2023/10/16 03:15:47;;;;;;;0.68;0.68;;;7.30;99.90;;;;;;5084490;28;20051;-64
2023/10/16 03:18:17;;;;;;;0.22;0.20;;;7.30;99.90;;;;;;5115460;27;20122;-64
2023/10/16 03:20:46;;;;;;;0.00;0.00;;;7.40;99.90;;;;;;5118146;27;20047;-65
2023/10/16 03:23:18;;;;;;;0.10;0.10;;;7.50;99.90;;;;;;5116744;27;20047;-65
2023/10/16 03:28:11;;;;;;;0.15;0.15;;;7.60;99.90;;;;;;5082307;28;20117;-64
2023/10/16 03:30:39;;;;;;;4.80;0.30;;;7.60;99.90;;;;;;5116023;27;20035;-64
2023/10/16 03:33:05;;;;;;;0.20;0.20;;;7.60;99.90;;;;;;5117327;27;20036;-65
2023/10/16 03:35:31;;;;;;;0.20;0.20;;;7.70;99.90;;;;;;5086459;28;20458;-65
2023/10/16 03:37:58;;;;;;;0.00;0.00;;;7.70;99.90;;;;;;5082735;28;20047;-65
2023/10/16 03:40:27;;;;;;;0.15;0.15;;;7.80;99.90;;;;;;5081693;28;20046;-65
2023/10/16 03:42:53;;;;;;;0.13;0.13;;;7.80;99.90;;;;;;5109585;27;20039;-65
2023/10/16 03:45:21;;;;;;;0.10;0.10;;;7.80;99.90;;;;;;5084741;28;20046;-66
2023/10/16 03:47:51;;;;;;;0.05;0.05;;;7.90;99.90;;;;;;5101583;27;20054;-65
2023/10/16 03:50:25;;;;;;;0.30;0.30;;;7.90;99.90;;;;;;5081498;27;20033;-64
2023/10/16 03:52:55;;;;;;;0.03;0.03;;;7.90;99.90;;;;;;5083625;28;20054;-64
2023/10/16 03:55:24;;;;;;;0.55;0.55;;;7.90;99.90;;;;;;5116945;27;20074;-65
2023/10/16 03:57:51;;;;;;;0.00;0.00;;;8.00;99.90;;;;;;5065061;27;20097;-64
2023/10/16 04:00:26;;;;;;;0.90;0.30;;;7.90;99.90;;;;;;5073013;27;20038;-65
2023/10/16 04:02:51;;;;;;;0.10;0.10;;;8.00;99.90;;;;;;5110987;27;20096;-65
2023/10/16 04:08:02;;;;;;;0.10;0.10;;;8.00;99.90;;;;;;5112420;27;20051;-64
2023/10/16 04:10:30;;;;;;;0.20;0.20;;;7.90;99.90;;;;;;5115258;27;20432;-64
2023/10/16 04:12:57;;;;;;;0.10;0.10;;;7.90;99.90;;;;;;5083447;28;20445;-65
2023/10/16 04:18:09;;;;;;;0.10;0.10;;;7.80;99.90;;;;;;5113869;27;20058;-64
2023/10/16 04:20:44;;;;;;;0.10;0.10;;;7.80;99.90;;;;;;5080377;28;20154;-65
2023/10/16 04:26:29;;;;;;;0.93;0.22;;;7.70;99.90;;;;;;5085748;28;20040;-65
2023/10/16 04:29:24;;;;;;;1.17;0.40;;;7.60;99.90;;;;;;5083366;28;20456;-65
2023/10/16 04:50:37;;;;;;;0.43;0.20;;;7.40;99.90;;;;;;5111984;27;20040;-65
2023/10/16 04:53:06;;;;;;;0.28;0.28;;;7.50;99.90;;;;;;5082242;28;20043;-65
2023/10/16 05:01:17;;;;;;;0.00;0.00;;;7.60;99.90;;;;;;5079778;28;20106;-65
2023/10/16 05:06:38;;;;;;;0.10;0.10;;;7.60;99.90;;;;;;5078980;28;20390;-65
2023/10/16 05:17:21;;;;;;;0.10;0.10;;;7.80;99.90;;;;;;5078315;28;20039;-64
2023/10/16 05:20:13;;;;;;;0.80;0.28;;;7.80;99.90;;;;;;5080054;28;20062;-65
2023/10/16 06:14:34;;;;;;;0.35;0.10;;;7.90;99.90;;;;;;5085817;28;20541;-66
2023/10/16 06:17:00;;;;;;;0.03;0.03;;;8.00;99.90;;;;;;5077427;28;20036;-66
2023/10/16 06:19:26;;;;;;;0.10;0.10;;;8.00;99.90;;;;;;5084985;28;20076;-66
2023/10/16 06:22:06;;;;;;;1.20;0.28;;;8.00;99.90;;;;;;5079640;28;20032;-66
2023/10/16 06:24:47;;;;;;;0.10;0.10;;;8.10;99.90;;;;;;5084046;28;20054;-66
2023/10/16 06:27:19;;;;;;;0.22;0.22;;;8.10;99.90;;;;;;5098988;28;20044;-66
2023/10/16 06:29:51;;;;;;;0.20;0.20;;;8.10;99.90;;;;;;5111446;27;20418;-65
2023/10/16 06:32:20;;;;;;;0.20;0.20;;;8.20;99.90;;;;;;5115674;27;20066;-65
2023/10/16 06:34:46;;;;;;;0.10;0.10;;;8.10;99.90;;;;;;5095156;28;20048;-66
2023/10/16 06:37:17;;;;;;;0.10;0.10;;;8.20;99.90;;;;;;5083397;27;20039;-65
2023/10/16 06:39:48;;;;;;;3.40;0.30;;;8.30;99.90;;;;;;5122158;27;20039;-65
2023/10/16 06:42:20;;;;;;;0.38;0.32;;;8.30;99.90;;;;;;5101850;27;20040;-65
2023/10/16 06:44:56;;;;;;;0.55;0.55;;;8.40;99.90;;;;;;5086741;28;20130;-65
2023/10/16 06:48:08;;;;;;;0.30;0.20;;;8.40;99.90;;;;;;5079871;28;20070;-65
2023/10/16 06:52:53;;;;;;;0.10;0.10;;;8.50;99.90;;;;;;5081034;28;20054;-65
2023/10/16 06:55:21;;;;;;;0.75;0.65;;;8.50;99.90;;;;;;5078522;27;20065;-66
2023/10/16 06:57:47;;;;;;;0.30;0.30;;;8.50;99.90;;;;;;5082328;28;20134;-66
2023/10/16 07:00:22;;;;;;;0.38;0.28;;;8.50;99.90;;;;;;5083243;28;20390;-65
2023/10/16 07:02:54;;;;;;;0.57;0.32;;;8.60;99.90;;;;;;5115521;27;20048;-65
2023/10/16 07:05:22;;;;;;;0.98;0.95;;;8.60;99.90;;;;;;5090224;28;20131;-66
2023/10/16 07:07:49;;;;;;;0.20;0.20;;;8.60;99.90;;;;;;5092525;28;20048;-66
2023/10/16 07:10:14;;;;;;;0.50;0.50;;;8.60;99.90;;;;;;5087780;28;20394;-66
2023/10/16 07:15:31;;;;;;;0.52;0.52;;;8.70;99.90;;;;;;5091193;28;20501;-65
2023/10/16 07:18:05;;;;;;;;;;;8.70;99.90;;;;;;5089241;28;20035;-65
2023/10/16 07:20:34;;;;;;;0.22;0.20;;;8.80;99.90;;;;;;5085756;28;20231;-65
2023/10/16 07:23:00;;;;;;;1.17;0.60;;;8.80;99.90;;;;;;5122478;27;20069;-65
2023/10/16 07:25:37;;;;;;;0.20;0.20;;;8.80;99.90;;;;;;5074517;28;20102;-65
2023/10/16 07:28:08;;;;;;;0.28;0.28;;;8.90;99.90;;;;;;5072979;28;20043;-65
2023/10/16 07:30:42;;;;;;;0.52;0.32;;;8.90;99.90;;;;;;5089884;28;20031;-65
2023/10/16 07:33:14;;;;;;;0.20;0.20;;;8.90;99.90;;;;;;5085412;27;20055;-65
2023/10/16 07:35:41;;;;;;;0.20;0.17;;;9.00;99.90;;;;;;5070331;28;20122;-66
2023/10/16 07:38:09;;;;;;;0.30;0.30;;;9.00;99.90;;;;;;5108679;27;20039;-65
2023/10/16 07:40:37;;;;;;;1.05;0.90;;;9.10;99.90;;;;;;5127069;27;20044;-65
2023/10/16 07:43:04;;;;;;;0.30;0.30;;;9.20;99.90;;;;;;5088226;28;20043;-64
2023/10/16 07:45:32;;;;;;;0.95;0.95;;;9.20;99.90;;;;;;5084726;28;20048;-64
2023/10/16 07:48:07;;;;;;;0.35;0.35;;;9.20;99.90;;;;;;5088822;28;20039;-65
2023/10/16 07:50:38;;;;;;;11.40;0.55;;;9.30;99.90;;;;;;5076707;28;20498;-64
2023/10/16 07:53:06;;;;;;;0.20;0.20;;;9.30;99.90;;;;;;5080099;28;20040;-64
2023/10/16 07:55:40;;;;;;;0.20;0.20;;;9.40;99.90;;;;;;5108031;27;20044;-65
2023/10/16 07:58:15;;;;;;;0.10;0.10;;;9.40;99.90;;;;;;5085742;28;20054;-65
2023/10/16 08:00:42;;;;;;;0.70;0.30;;;9.40;99.90;;;;;;5090525;28;20494;-65
2023/10/16 08:03:13;;;;;;;0.38;0.38;;;9.50;99.90;;;;;;5086054;28;20089;-64
2023/10/16 08:05:47;;;;;;;0.88;0.30;;;9.50;99.90;;;;;;5114708;27;20128;-64
2023/10/16 08:08:13;;;;;;;0.10;0.10;;;9.50;99.90;;;;;;5071475;28;20032;-65
2023/10/16 08:10:42;;;;;;;0.10;0.10;;;9.60;99.90;;;;;;5093410;28;20042;-64
2023/10/16 08:13:13;;;;;;;0.05;0.05;;;9.60;99.90;;;;;;5078780;28;20047;-65
2023/10/16 08:15:46;;;;;;;0.45;0.20;;;9.60;99.90;;;;;;5074049;28;20075;-65
2023/10/16 08:18:13;;;;;;;0.10;0.10;;;9.70;99.90;;;;;;5077004;28;20059;-65
2023/10/16 08:21:00;;;;;;;0.10;0.10;;;9.70;99.90;;;;;;5116509;27;20121;-65
2023/10/16 08:23:31;;;;;;;0.20;0.20;;;9.80;99.90;;;;;;5114109;27;20044;-65
2023/10/16 08:26:00;;;;;;;11.33;0.63;;;9.80;99.90;;;;;;5112621;27;20087;-65
2023/10/16 08:28:35;;;;;;;0.40;0.40;;;9.90;99.90;;;;;;5090071;28;20120;-64
2023/10/16 08:31:22;;;;;;;0.10;0.10;;;9.90;99.90;;;;;;5082337;28;20499;-65
2023/10/16 08:33:49;;;;;;;0.13;0.13;;;10.00;99.90;;;;;;5082729;28;20401;-64
2023/10/16 08:36:18;;;;;;;0.17;0.17;;;10.10;99.90;;;;;;5087137;28;20484;-64
2023/10/16 08:38:52;;;;;;;1.75;0.57;;;10.20;99.90;;;;;;5119089;27;20047;-65
2023/10/16 08:41:23;;;;;;;0.20;0.20;;;10.20;99.90;;;;;;5085477;28;20039;-65
2023/10/16 08:44:03;;;;;;;0.38;0.38;;;10.30;99.90;;;;;;5082941;28;20044;-64
2023/10/16 08:46:44;;;;;;;1.35;0.80;;;10.30;99.90;;;;;;5087064;28;20496;-65
2023/10/16 08:49:11;;;;;;;0.00;0.00;;;10.50;99.90;;;;;;5082398;28;20048;-64
2023/10/16 08:51:38;;;;;;;0.20;0.20;;;10.50;99.90;;;;;;5088000;28;20051;-65
2023/10/16 08:54:08;;;;;;;0.20;0.10;;;10.60;99.90;;;;;;5087511;28;20031;-65
2023/10/16 08:56:34;;;;;;;0.10;0.10;;;10.70;99.90;;;;;;5082921;28;20047;-65
2023/10/16 08:59:01;;;;;;;0.00;0.00;;;10.70;99.90;;;;;;5083168;28;20093;-65
2023/10/16 09:01:28;;;;;;;0.10;0.10;;;10.80;99.90;;;;;;5101971;27;20076;-65
2023/10/16 09:04:07;;;;;;;0.10;0.10;;;10.80;99.90;;;;;;5116903;27;20051;-65
2023/10/16 09:06:37;;;;;;;0.10;0.10;;;10.80;99.90;;;;;;5091794;27;20035;-65
2023/10/16 09:09:11;;;;;;;0.70;0.32;;;10.90;99.90;;;;;;5081347;28;20032;-65
2023/10/16 09:11:39;;;;;;;0.08;0.08;;;10.90;99.90;;;;;;5086075;28;20048;-65
2023/10/16 09:14:09;;;;;;;0.03;0.03;;;10.90;99.90;;;;;;5088172;28;20096;-66
2023/10/16 09:16:35;;;;;;;0.00;0.00;;;10.90;99.90;;;;;;5081536;28;20040;-65
2023/10/16 09:19:06;;;;;;;0.10;0.10;;;10.90;99.90;;;;;;5118640;27;20543;-66
2023/10/16 09:21:38;;;;;;;0.00;0.00;;;11.10;99.90;;;;;;5079263;28;20127;-66
2023/10/16 09:24:06;;;;;;;0.00;0.00;;;11.20;99.90;;;;;;5117893;27;20045;-65
2023/10/16 09:26:38;;;;;;;0.00;0.00;;;11.20;99.90;;;;;;5081399;28;20280;-66
2023/10/16 09:29:05;;;;;;;0.77;0.25;;;11.30;99.90;;;;;;5083348;28;20039;-67
2023/10/16 09:31:31;;;;;;;0.70;0.10;;;11.40;99.90;;;;;;5082859;28;20071;-65
2023/10/16 09:33:57;;;;;;;0.10;0.10;;;11.40;99.90;;;;;;5079286;28;20434;-67
2023/10/16 09:36:23;;;;;;;0.15;0.15;;;11.50;99.90;;;;;;5106836;28;20078;-66
2023/10/16 09:38:53;;;;;;;0.22;0.22;;;11.60;99.90;;;;;;5075311;28;20118;-66
2023/10/16 09:43:56;;;;;;;0.10;0.10;;;11.60;99.90;;;;;;5088176;28;20502;-66
2023/10/16 09:49:14;;;;;;;0.10;0.10;;;11.60;99.90;;;;;;5083614;28;20058;-67
2023/10/16 09:51:40;;;;;;;4.00;1.73;;;11.60;99.90;;;;;;5084570;28;20513;-67
2023/10/16 09:54:09;;;;;;;1.90;0.40;;;11.60;99.90;;;;;;5084059;28;20038;-66
2023/10/16 09:56:39;;;;;;;0.10;0.10;;;11.60;99.90;;;;;;5119417;28;20040;-66
2023/10/16 09:59:12;;;;;;;0.40;0.40;;;11.60;99.90;;;;;;5081370;28;20111;-65
2023/10/16 10:01:45;;;;;;;0.10;0.10;;;11.60;99.90;;;;;;5081298;28;20067;-66
2023/10/16 10:04:18;;;;;;;0.30;0.30;;;11.70;99.90;;;;;;5080928;28;20046;-66
2023/10/16 10:06:47;;;;;;;0.17;0.17;;;11.70;99.90;;;;;;5115710;27;20040;-66
2023/10/16 10:12:09;;;;;;;0.10;0.10;;;11.80;99.90;;;;;;5084038;28;20162;-66
2023/10/16 10:14:46;;;;;;;0.00;0.00;;;11.80;99.90;;;;;;5120250;27;20475;-66
2023/10/16 10:17:19;;;;;;;0.10;0.10;;;11.90;99.90;;;;;;5118642;27;21578;-67
2023/10/16 10:19:54;;;;;;;0.10;0.10;;;11.90;99.90;;;;;;5119174;27;20207;-66
2023/10/16 10:22:27;;;;;;;0.32;0.20;;;11.90;99.90;;;;;;5087640;28;20039;-67
2023/10/16 10:25:22;;;;;;;;;;;12.00;99.90;;;;;;5084000;28;20046;-66
2023/10/16 10:27:48;;;;;;;0.20;0.20;;;12.00;99.90;;;;;;5086494;28;19920;-66
2023/10/16 10:30:27;;;;;;;0.13;0.10;;;12.10;99.90;;;;;;5087384;28;20081;-66
2023/10/16 10:32:53;;;;;;;0.15;0.08;;;12.20;99.90;;;;;;5079121;28;20036;-67
2023/10/16 10:35:38;;;;;;;0.52;0.52;;;12.20;99.90;;;;;;5087489;28;20036;-66
2023/10/16 10:38:17;;;;;;;4.68;0.90;;;12.30;99.90;;;;;;5084095;28;20043;-67
2023/10/16 10:41:15;;;;;;;0.30;0.25;;;12.30;99.90;;;;;;5115819;27;20044;-68
2023/10/16 10:43:46;;;;;;;0.40;0.40;;;12.40;99.90;;;;;;5057661;28;20462;-68
2023/10/16 10:46:20;;;;;;;0.20;0.20;;;12.40;99.90;;;;;;5088898;28;20043;-67
2023/10/16 10:48:46;;;;;;;0.10;0.10;;;12.40;99.90;;;;;;5084069;28;21273;-67
2023/10/16 10:51:14;;;;;;;0.98;0.75;;;12.50;99.90;;;;;;5084920;28;20046;-67
2023/10/16 10:53:57;;;;;;;0.00;0.00;;;12.60;99.90;;;;;;5083546;28;20047;-66
2023/10/16 10:56:23;;;;;;;;;;;12.60;99.90;;;;;;5087514;28;20039;-67
2023/10/16 10:58:50;;;;;;;0.10;0.10;;;12.60;99.90;;;;;;5087033;28;19915;-67
2023/10/16 11:01:16;;;;;;;0.10;0.10;;;12.50;99.90;;;;;;5085854;28;20093;-66
2023/10/16 11:03:45;;;;;;;1.92;0.43;;;12.60;99.90;;;;;;5085488;28;20081;-67
2023/10/16 11:06:22;;;;;;;0.40;0.10;;;12.70;99.90;;;;;;5120438;27;20054;-68
2023/10/16 11:08:51;;;;;;;0.40;0.40;;;12.70;99.90;;;;;;5084498;28;20051;-67
2023/10/16 11:11:17;;;;;;;0.00;0.00;;;12.80;99.90;;;;;;5087410;28;20049;-66
2023/10/16 11:13:47;;;;;;;2.63;0.20;;;12.80;99.90;;;;;;5086715;28;20036;-66
2023/10/16 11:16:14;;;;;;;0.73;0.30;;;12.80;99.90;;;;;;5070233;28;20059;-67
2023/10/16 11:18:43;;;;;;;0.00;0.00;;;12.90;99.90;;;;;;5115106;27;20251;-67
2023/10/16 11:21:09;;;;;;;0.10;0.10;;;12.90;99.90;;;;;;5118326;27;20050;-66
2023/10/16 11:23:40;;;;;;;1.15;0.20;;;13.00;99.90;;;;;;5085521;27;20043;-66
2023/10/16 11:26:06;;;;;;;0.10;0.10;;;13.10;99.90;;;;;;5081731;28;20145;-67
2023/10/16 11:28:32;;;;;;;0.20;0.20;;;13.10;99.90;;;;;;5065277;28;20048;-68
2023/10/16 11:31:00;;;;;;;0.10;0.10;;;13.00;99.90;;;;;;5115486;27;20039;-67
2023/10/16 11:33:34;;;;;;;0.10;0.10;;;12.90;99.90;;;;;;5084603;28;20071;-66
2023/10/16 11:36:06;;;;;;;0.20;0.20;;;12.80;99.90;;;;;;5118835;27;20146;-66
2023/10/16 11:38:34;;;;;;;0.10;0.10;;;12.90;99.90;;;;;;5082511;28;20050;-66
2023/10/16 11:41:05;;;;;;;1.65;0.45;;;13.00;99.90;;;;;;5084799;27;20050;-66
2023/10/16 11:43:40;;;;;;;0.10;0.10;;;13.00;99.90;;;;;;5119024;27;20070;-66
2023/10/16 11:46:27;;;;;;;0.10;0.10;;;13.10;99.90;;;;;;5115748;27;20040;-66
2023/10/16 11:48:56;;;;;;;0.10;0.10;;;13.00;99.90;;;;;;5086981;28;20050;-67
2023/10/16 11:51:25;;;;;;;0.30;0.30;;;13.10;99.90;;;;;;5114826;27;20605;-66
2023/10/16 11:54:03;;;;;;;0.10;0.10;;;13.00;99.90;;;;;;5099048;27;20039;-66
2023/10/16 11:56:34;;;;;;;0.00;0.00;;;13.00;99.90;;;;;;5085576;28;20039;-65
2023/10/16 11:59:03;;;;;;;0.00;0.00;;;12.90;99.90;;;;;;5081859;28;20398;-67
2023/10/16 12:01:28;;;;;;;0.20;0.20;;;12.90;99.90;;;;;;5116689;27;20081;-68
2023/10/16 12:03:55;;;;;;;0.00;0.00;;;12.90;99.90;;;;;;5085399;28;20893;-66
2023/10/16 12:06:20;;;;;;;2.38;0.20;;;12.80;99.90;;;;;;5084643;28;20036;-68
2023/10/16 12:08:46;;;;;;;0.70;0.65;;;12.80;99.90;;;;;;5083012;28;20414;-66
2023/10/16 12:11:14;;;;;;;0.10;0.10;;;12.80;99.90;;;;;;5084371;28;20042;-66
2023/10/16 12:13:43;;;;;;;0.20;0.20;;;12.80;99.90;;;;;;5113196;27;20040;-67
2023/10/16 12:16:09;;;;;;;0.75;0.57;;;12.90;99.90;;;;;;5083773;28;20036;-67
2023/10/16 12:18:35;;;;;;;0.10;0.10;;;12.90;99.90;;;;;;5088674;27;20507;-66
2023/10/16 12:21:06;;;;;;;0.57;0.13;;;12.90;99.90;;;;;;5088431;28;20397;-67
2023/10/16 12:23:34;;;;;;;0.30;0.30;;;13.00;99.90;;;;;;5115272;27;20444;-67
2023/10/16 12:26:00;;;;;;;0.10;0.10;;;13.00;99.90;;;;;;5088913;28;20096;-67
2023/10/16 12:28:26;;;;;;;0.10;0.10;;;13.10;99.90;;;;;;5082782;28;20039;-67
2023/10/16 12:30:56;;;;;;;7.10;0.82;;;13.10;99.90;;;;;;5082030;28;20100;-68
2023/10/16 12:33:25;;;;;;;0.32;0.20;;;13.10;99.90;;;;;;5081283;28;20031;-66
2023/10/16 12:35:54;;;;;;;0.10;0.10;;;13.20;99.90;;;;;;5083142;27;20089;-66
2023/10/16 12:38:20;;;;;;;0.00;0.00;;;13.10;99.90;;;;;;5083027;28;20550;-67
2023/10/16 12:40:46;;;;;;;0.68;0.68;;;13.20;99.90;;;;;;5100635;27;20054;-66
2023/10/16 12:43:12;;;;;;;0.10;0.10;;;13.20;99.90;;;;;;5084216;28;20114;-66
2023/10/16 12:45:40;;;;;;;0.20;0.20;;;13.20;99.90;;;;;;5100337;28;20051;-67
2023/10/16 12:48:07;;;;;;;0.10;0.10;;;13.20;99.90;;;;;;5068491;28;20134;-66
2023/10/16 12:50:33;;;;;;;0.10;0.10;;;13.20;99.90;;;;;;5097632;28;20368;-67
2023/10/16 12:53:00;;;;;;;0.75;0.75;;;13.20;99.90;;;;;;5087633;28;20044;-66
2023/10/16 12:55:26;;;;;;;0.30;0.10;;;13.30;99.90;;;;;;5082545;27;20043;-67
2023/10/16 12:57:53;;;;;;;0.17;0.17;;;13.20;99.90;;;;;;5083838;28;20458;-66
2023/10/16 13:00:21;;;;;;;0.08;0.08;;;13.30;99.90;;;;;;5076508;28;20530;-67
2023/10/16 13:02:52;;;;;;;0.00;0.00;;;13.30;99.90;;;;;;5120216;27;20046;-66
2023/10/16 13:05:24;;;;;;;3.00;2.55;;;13.30;99.90;;;;;;5110221;27;20175;-67
2023/10/16 13:07:50;;;;;;;0.17;0.17;;;13.30;99.90;;;;;;5086412;28;20321;-67
2023/10/16 13:10:20;;;;;;;0.00;0.00;;;13.20;99.90;;;;;;5082419;28;20305;-66
2023/10/16 13:12:47;;;;;;;0.05;0.00;;;13.30;99.90;;;;;;5080470;28;20517;-66
2023/10/16 13:15:24;;;;;;;0.10;0.10;;;13.40;99.90;;;;;;5100435;27;20036;-67
2023/10/16 13:17:52;;;;;;;0.10;0.10;;;13.40;99.90;;;;;;5080773;28;20039;-67
2023/10/16 13:20:18;;;;;;;1.02;0.30;;;13.40;99.90;;;;;;5079273;28;20047;-67
2023/10/16 13:22:49;;;;;;;0.10;0.10;;;13.30;99.90;;;;;;5082777;28;20041;-66
2023/10/16 13:25:17;;;;;;;0.17;0.17;;;13.40;99.90;;;;;;5084130;28;20054;-66
2023/10/16 13:27:44;;;;;;;0.10;0.10;;;13.40;99.90;;;;;;5081861;28;20039;-67
2023/10/16 13:30:11;;;;;;;0.05;0.05;;;13.50;99.90;;;;;;5116079;27;20070;-66
2023/10/16 13:32:41;;;;;;;0.13;0.13;;;13.50;99.90;;;;;;5082238;28;20044;-66
2023/10/16 13:35:12;;;;;;;0.00;0.00;;;13.40;99.90;;;;;;5082474;28;20492;-67
2023/10/16 13:37:50;;;;;;;0.17;0.17;;;13.40;99.90;;;;;;5087138;28;20032;-67
2023/10/16 13:40:21;;;;;;;0.00;0.00;;;13.40;99.90;;;;;;5098418;28;20111;-66
2023/10/16 13:42:48;;;;;;;0.10;0.10;;;13.30;99.90;;;;;;5099377;28;20059;-67
2023/10/16 13:45:15;;;;;;;0.10;0.10;;;13.40;99.90;;;;;;5082333;28;20073;-66
2023/10/16 13:47:43;;;;;;;0.10;0.10;;;13.40;99.90;;;;;;5118309;28;20036;-67
2023/10/16 13:50:25;;;;;;;0.10;0.10;;;13.40;99.90;;;;;;5079664;28;20156;-67
2023/10/16 13:52:51;;;;;;;0.00;0.00;;;13.40;99.90;;;;;;5113322;28;20501;-66
2023/10/16 13:55:20;;;;;;;0.20;0.20;;;13.40;99.90;;;;;;5114544;28;20063;-67
2023/10/16 13:57:48;;;;;;;0.10;0.10;;;13.40;99.90;;;;;;5116834;28;20063;-67
2023/10/16 14:00:57;;;;;;;0.10;0.10;;;13.50;99.90;;;;;;5083714;28;20378;-66
2023/10/16 14:03:09;;;;;;;4.05;0.20;;;13.50;99.90;;;;;;5072221;28;20048;-66
2023/10/16 14:05:40;;;;;;;0.10;0.10;;;13.40;99.90;;;;;;5118357;28;20054;-66
2023/10/16 14:08:09;;;;;;;2.30;0.55;;;13.40;99.90;;;;;;5081402;28;20035;-67
2023/10/16 14:10:49;;;;;;;0.08;0.08;;;13.30;99.90;;;;;;5114333;28;20453;-66
2023/10/16 14:13:19;;;;;;;0.10;0.10;;;13.20;99.90;;;;;;5081618;28;20101;-66
2023/10/16 14:15:51;;;;;;;0.13;0.13;;;13.20;99.90;;;;;;5115741;28;20036;-67
2023/10/16 14:18:21;;;;;;;0.43;0.43;;;13.10;99.90;;;;;;5102068;28;20043;-66
2023/10/16 14:20:48;;;;;;;0.03;0.03;;;13.10;99.90;;;;;;5120622;28;20036;-66
2023/10/16 14:23:14;;;;;;;0.10;0.10;;;13.10;99.90;;;;;;5084500;28;20062;-66
2023/10/16 14:25:57;;;;;;;0.00;0.00;;;13.20;99.90;;;;;;5081452;28;20384;-66
2023/10/16 14:31:08;;;;;;;0.10;0.10;;;13.20;99.90;;;;;;5082298;28;20047;-66
2023/10/16 14:33:36;;;;;;;0.20;0.20;;;13.20;99.90;;;;;;5084634;28;20167;-66
2023/10/16 14:36:16;;;;;;;0.10;0.10;;;13.20;99.90;;;;;;5084652;28;20040;-66
2023/10/16 14:38:43;;;;;;;0.10;0.10;;;13.20;99.90;;;;;;5085431;28;20035;-66
2023/10/16 14:41:09;;;;;;;0.10;0.10;;;13.10;99.90;;;;;;5078580;28;20529;-66
2023/10/16 14:43:38;;;;;;;0.00;0.00;;;13.10;99.90;;;;;;5085031;28;20278;-66
2023/10/16 14:46:07;;;;;;;0.00;0.00;;;13.00;99.90;;;;;;5082320;28;20413;-66
2023/10/16 14:48:33;;;;;;;0.10;0.10;;;12.90;99.90;;;;;;5080097;28;20058;-66
2023/10/16 14:50:59;;;;;;;0.10;0.10;;;12.90;99.90;;;;;;5075466;28;20062;-66
2023/10/16 14:53:26;;;;;;;0.00;0.00;;;12.80;99.90;;;;;;5114763;27;20094;-66
2023/10/16 14:55:52;;;;;;;0.00;0.00;;;12.70;99.90;;;;;;5084387;28;20042;-66
2023/10/16 14:58:21;;;;;;;0.10;0.10;;;12.70;99.90;;;;;;5088971;28;20065;-66
2023/10/16 15:00:50;;;;;;;0.10;0.10;;;12.60;99.90;;;;;;5087063;28;20036;-66
2023/10/16 15:03:20;;;;;;;0.10;0.10;;;12.60;99.90;;;;;;5117544;27;20561;-66
2023/10/16 15:05:46;;;;;;;0.38;0.38;;;12.50;99.90;;;;;;5120232;27;20555;-66
2023/10/16 15:08:13;;;;;;;0.13;0.13;;;12.50;99.90;;;;;;5070868;28;20042;-66